createdAt,value
2022-09-14T00:03:42.359Z,9.30
2022-09-14T00:13:50.633Z,11.00
2022-09-14T00:23:57.968Z,9.50
2022-09-14T00:34:06.859Z,11.00
2022-09-14T00:44:44.668Z,12.20
2022-09-14T00:54:56.218Z,10.50
2022-09-14T01:05:04.000Z,10.20
2022-09-14T01:15:21.867Z,8.90
2022-09-14T01:25:43.174Z,8.90
2022-09-14T01:35:53.376Z,9.00
2022-09-14T01:46:06.275Z,9.50
2022-09-14T01:56:15.569Z,10.00
2022-09-14T02:06:20.578Z,11.20
2022-09-14T02:16:28.380Z,10.30
2022-09-14T02:26:36.711Z,9.50
2022-09-14T02:36:45.093Z,8.50
2022-09-14T02:47:00.043Z,18.80
2022-09-14T02:57:08.443Z,9.70
2022-09-14T03:07:15.704Z,10.40
2022-09-14T03:17:22.750Z,14.00
2022-09-14T03:27:30.045Z,10.60
2022-09-14T03:37:40.295Z,6.90
2022-09-14T03:47:47.158Z,7.80
2022-09-14T03:57:55.016Z,9.00
2022-09-14T04:08:02.141Z,12.70
2022-09-14T04:18:09.625Z,13.10
2022-09-14T04:28:20.445Z,10.90
2022-09-14T04:38:28.470Z,11.20
2022-09-14T04:48:36.279Z,9.50
2022-09-14T04:58:50.686Z,16.90
2022-09-14T05:09:00.600Z,15.10
2022-09-14T05:19:12.396Z,11.30
2022-09-14T05:29:20.592Z,11.70
2022-09-14T05:39:26.696Z,10.00
2022-09-14T05:49:33.671Z,10.60
2022-09-14T05:59:40.928Z,11.30
2022-09-14T06:09:48.089Z,16.40
2022-09-14T06:19:55.407Z,21.10
2022-09-14T06:30:02.509Z,14.90
2022-09-14T06:40:11.083Z,10.90
2022-09-14T06:50:18.453Z,16.70
2022-09-14T07:00:25.717Z,12.10
2022-09-14T07:10:31.781Z,9.20
2022-09-14T07:20:39.002Z,9.40
2022-09-14T07:30:46.228Z,12.10
2022-09-14T07:40:54.221Z,18.00
2022-09-14T07:51:03.687Z,8.70
2022-09-14T08:01:12.606Z,7.30
2022-09-14T08:11:22.522Z,9.90
2022-09-14T08:21:32.171Z,7.60
2022-09-14T08:31:39.388Z,4.70
2022-09-14T08:41:47.428Z,9.20
2022-09-14T08:51:55.064Z,7.50
2022-09-14T09:02:03.276Z,5.90
2022-09-14T09:12:17.836Z,6.40
2022-09-14T09:22:30.107Z,5.00
2022-09-14T09:32:38.395Z,3.40
2022-09-14T09:43:06.373Z,4.00
2022-09-14T09:53:16.632Z,6.40
2022-09-14T10:03:23.222Z,6.30
2022-09-14T10:13:30.221Z,7.00
2022-09-14T10:23:39.035Z,3.40
2022-09-14T10:33:46.882Z,6.20
2022-09-14T10:54:14.040Z,6.10
2022-09-14T11:04:23.176Z,4.50
2022-09-14T11:14:36.589Z,6.50
2022-09-14T11:24:41.598Z,9.50
2022-09-14T11:34:54.951Z,4.20
2022-09-14T11:45:07.617Z,8.00
2022-09-14T11:55:19.785Z,4.30
2022-09-14T12:05:43.684Z,8.20
2022-09-14T12:16:02.024Z,7.70
2022-09-14T12:36:56.957Z,7.70
2022-09-14T12:47:29.569Z,6.30
2022-09-14T12:57:36.378Z,6.10
2022-09-14T13:07:44.637Z,6.10
2022-09-14T13:18:04.226Z,9.90
2022-09-14T13:28:18.870Z,6.90
2022-09-14T13:38:28.579Z,4.60
2022-09-14T13:48:37.522Z,8.60
2022-09-14T13:58:45.275Z,8.10
2022-09-14T14:09:07.134Z,9.50
2022-09-14T14:19:29.900Z,12.10
2022-09-14T14:29:37.103Z,11.70
2022-09-14T14:39:49.409Z,18.30
2022-09-14T14:49:56.806Z,13.80
2022-09-14T15:00:02.692Z,13.00
2022-09-14T15:10:14.613Z,14.60
2022-09-14T15:20:23.228Z,14.50
2022-09-14T15:30:30.336Z,10.10
2022-09-14T15:40:37.678Z,9.80
2022-09-14T15:50:43.801Z,8.90
2022-09-14T16:00:51.046Z,14.90
2022-09-14T16:11:01.664Z,13.40
2022-09-14T16:21:10.111Z,12.90
2022-09-14T16:31:20.245Z,14.90
2022-09-14T16:41:27.949Z,13.00
2022-09-14T16:51:35.851Z,24.20
2022-09-14T17:01:46.576Z,13.80
2022-09-14T17:11:57.678Z,8.30
2022-09-14T17:22:04.105Z,9.30
2022-09-14T17:32:14.815Z,15.60
2022-09-14T17:42:22.431Z,11.90
2022-09-14T17:52:25.856Z,16.60
2022-09-14T18:02:33.014Z,14.70
2022-09-14T18:12:40.076Z,13.80
2022-09-14T18:22:47.282Z,16.20
2022-09-14T18:32:54.527Z,14.00
2022-09-14T18:43:01.790Z,12.70
2022-09-14T18:53:09.496Z,18.80
2022-09-14T19:03:17.026Z,19.10
2022-09-14T19:13:24.311Z,19.20
2022-09-14T19:23:31.737Z,17.60
2022-09-14T19:33:45.044Z,15.70
2022-09-14T19:43:53.590Z,12.00
2022-09-14T19:54:02.132Z,12.20
2022-09-14T20:04:10.603Z,14.50
2022-09-14T20:24:28.057Z,12.50
2022-09-14T20:34:34.792Z,13.90
2022-09-14T20:44:42.449Z,13.90
2022-09-14T20:54:49.590Z,10.90
2022-09-14T21:04:55.980Z,10.40
2022-09-14T21:15:03.172Z,8.60
2022-09-14T21:25:11.821Z,7.80
2022-09-14T21:45:23.977Z,4.70
2022-09-14T21:55:31.410Z,6.10
2022-09-14T22:05:38.910Z,8.90
2022-09-14T22:15:47.266Z,4.70
2022-09-14T22:25:55.093Z,5.10
2022-09-14T22:36:04.138Z,4.10
2022-09-14T22:46:11.841Z,7.60
2022-09-14T22:56:24.788Z,6.20
2022-09-14T23:06:34.024Z,4.30
2022-09-14T23:16:41.505Z,4.50
2022-09-14T23:26:49.308Z,3.20
2022-09-14T23:36:57.368Z,4.30
2022-09-14T23:47:04.921Z,4.40
2022-09-14T23:57:11.934Z,29.30
